sensor_id;sensor_type;location;lat;lon;timestamp;temperature;humidity
74376;HTU21D;62812;55.188;61.302;2022-09-02T00:01:16;22.97;53.81
74376;HTU21D;62812;55.188;61.302;2022-09-02T00:03:45;22.96;52.78
74376;HTU21D;62812;55.188;61.302;2022-09-02T00:06:12;22.96;51.58
74376;HTU21D;62812;55.188;61.302;2022-09-02T00:08:39;22.99;51.14
74376;HTU21D;62812;55.188;61.302;2022-09-02T00:11:07;23.02;49.98
74376;HTU21D;62812;55.188;61.302;2022-09-02T00:13:35;23.05;50.27
74376;HTU21D;62812;55.188;61.302;2022-09-02T00:16:04;23.05;50.01
74376;HTU21D;62812;55.188;61.302;2022-09-02T00:18:31;23.06;49.74
74376;HTU21D;62812;55.188;61.302;2022-09-02T00:20:59;23.06;49.89
74376;HTU21D;62812;55.188;61.302;2022-09-02T00:23:26;23.07;49.36
74376;HTU21D;62812;55.188;61.302;2022-09-02T00:25:52;23.10;48.57
74376;HTU21D;62812;55.188;61.302;2022-09-02T00:28:19;23.11;48.75
74376;HTU21D;62812;55.188;61.302;2022-09-02T00:30:45;23.15;48.77
74376;HTU21D;62812;55.188;61.302;2022-09-02T00:33:13;23.14;49.51
74376;HTU21D;62812;55.188;61.302;2022-09-02T00:35:41;23.13;50.50
74376;HTU21D;62812;55.188;61.302;2022-09-02T00:38:08;23.11;50.90
74376;HTU21D;62812;55.188;61.302;2022-09-02T00:40:36;23.12;49.27
74376;HTU21D;62812;55.188;61.302;2022-09-02T00:43:05;23.12;50.65
74376;HTU21D;62812;55.188;61.302;2022-09-02T00:45:32;23.10;50.74
74376;HTU21D;62812;55.188;61.302;2022-09-02T00:47:58;23.11;49.65
74376;HTU21D;62812;55.188;61.302;2022-09-02T00:50:30;23.11;51.00
74376;HTU21D;62812;55.188;61.302;2022-09-02T00:53:04;23.11;50.53
74376;HTU21D;62812;55.188;61.302;2022-09-02T00:55:35;23.13;52.00
74376;HTU21D;62812;55.188;61.302;2022-09-02T00:58:06;23.11;51.33
74376;HTU21D;62812;55.188;61.302;2022-09-02T01:00:35;23.07;53.09
74376;HTU21D;62812;55.188;61.302;2022-09-02T01:03:07;22.98;53.35
74376;HTU21D;62812;55.188;61.302;2022-09-02T01:05:39;22.94;52.40
74376;HTU21D;62812;55.188;61.302;2022-09-02T01:08:11;22.92;52.13
74376;HTU21D;62812;55.188;61.302;2022-09-02T01:10:39;22.88;51.01
74376;HTU21D;62812;55.188;61.302;2022-09-02T01:13:08;22.87;50.97
74376;HTU21D;62812;55.188;61.302;2022-09-02T01:15:38;22.82;51.89
74376;HTU21D;62812;55.188;61.302;2022-09-02T01:18:06;22.77;51.54
74376;HTU21D;62812;55.188;61.302;2022-09-02T01:20:35;22.73;51.42
74376;HTU21D;62812;55.188;61.302;2022-09-02T01:23:03;22.71;51.14
74376;HTU21D;62812;55.188;61.302;2022-09-02T01:25:32;22.70;51.01
74376;HTU21D;62812;55.188;61.302;2022-09-02T01:28:00;22.68;50.38
74376;HTU21D;62812;55.188;61.302;2022-09-02T01:30:28;22.65;50.54
74376;HTU21D;62812;55.188;61.302;2022-09-02T01:32:55;22.66;50.61
74376;HTU21D;62812;55.188;61.302;2022-09-02T01:35:21;22.67;51.41
74376;HTU21D;62812;55.188;61.302;2022-09-02T01:37:53;22.70;50.84
74376;HTU21D;62812;55.188;61.302;2022-09-02T01:40:23;22.69;51.62
74376;HTU21D;62812;55.188;61.302;2022-09-02T01:42:50;22.68;52.43
74376;HTU21D;62812;55.188;61.302;2022-09-02T01:45:18;22.64;52.84
74376;HTU21D;62812;55.188;61.302;2022-09-02T01:47:49;22.61;53.72
74376;HTU21D;62812;55.188;61.302;2022-09-02T01:50:17;22.63;52.98
74376;HTU21D;62812;55.188;61.302;2022-09-02T01:52:43;22.65;53.72
74376;HTU21D;62812;55.188;61.302;2022-09-02T01:55:10;22.75;52.94
74376;HTU21D;62812;55.188;61.302;2022-09-02T01:57:38;22.88;52.33
74376;HTU21D;62812;55.188;61.302;2022-09-02T02:00:06;23.02;52.36
74376;HTU21D;62812;55.188;61.302;2022-09-02T02:02:33;23.11;52.43
74376;HTU21D;62812;55.188;61.302;2022-09-02T02:04:59;23.20;52.25
74376;HTU21D;62812;55.188;61.302;2022-09-02T02:07:27;23.30;51.98
74376;HTU21D;62812;55.188;61.302;2022-09-02T02:09:53;23.38;51.82
74376;HTU21D;62812;55.188;61.302;2022-09-02T02:12:20;23.57;51.33
74376;HTU21D;62812;55.188;61.302;2022-09-02T02:14:48;23.74;51.43
74376;HTU21D;62812;55.188;61.302;2022-09-02T02:17:14;23.83;50.79
74376;HTU21D;62812;55.188;61.302;2022-09-02T02:19:42;23.95;49.57
74376;HTU21D;62812;55.188;61.302;2022-09-02T02:22:12;24.00;49.19
74376;HTU21D;62812;55.188;61.302;2022-09-02T02:24:39;24.10;48.49
74376;HTU21D;62812;55.188;61.302;2022-09-02T02:27:07;24.09;48.53
74376;HTU21D;62812;55.188;61.302;2022-09-02T02:29:35;24.10;48.72
74376;HTU21D;62812;55.188;61.302;2022-09-02T02:32:04;24.06;48.56
74376;HTU21D;62812;55.188;61.302;2022-09-02T02:34:33;24.00;48.95
74376;HTU21D;62812;55.188;61.302;2022-09-02T02:37:00;24.20;48.88
74376;HTU21D;62812;55.188;61.302;2022-09-02T02:39:30;24.65;48.18
74376;HTU21D;62812;55.188;61.302;2022-09-02T02:42:08;24.95;47.83
74376;HTU21D;62812;55.188;61.302;2022-09-02T02:44:35;25.09;47.73
74376;HTU21D;62812;55.188;61.302;2022-09-02T02:47:20;25.16;46.91
74376;HTU21D;62812;55.188;61.302;2022-09-02T02:49:59;25.20;47.36
74376;HTU21D;62812;55.188;61.302;2022-09-02T02:52:43;25.19;47.71
74376;HTU21D;62812;55.188;61.302;2022-09-02T02:55:52;25.24;48.41
74376;HTU21D;62812;55.188;61.302;2022-09-02T02:59:18;25.34;48.45
74376;HTU21D;62812;55.188;61.302;2022-09-02T03:01:50;25.43;47.97
74376;HTU21D;62812;55.188;61.302;2022-09-02T03:04:19;25.47;48.05
74376;HTU21D;62812;55.188;61.302;2022-09-02T03:06:46;25.57;49.57
74376;HTU21D;62812;55.188;61.302;2022-09-02T03:09:16;25.66;48.41
74376;HTU21D;62812;55.188;61.302;2022-09-02T03:11:57;25.71;49.77
74376;HTU21D;62812;55.188;61.302;2022-09-02T03:14:24;25.80;50.13
74376;HTU21D;62812;55.188;61.302;2022-09-02T03:17:19;25.86;50.43
74376;HTU21D;62812;55.188;61.302;2022-09-02T03:20:00;25.96;50.40
74376;HTU21D;62812;55.188;61.302;2022-09-02T03:22:30;26.02;52.91
74376;HTU21D;62812;55.188;61.302;2022-09-02T03:28:18;26.31;49.20
74376;HTU21D;62812;55.188;61.302;2022-09-02T03:34:13;26.43;47.38
74376;HTU21D;62812;55.188;61.302;2022-09-02T03:36:54;26.55;48.81
74376;HTU21D;62812;55.188;61.302;2022-09-02T03:39:24;26.52;48.43
74376;HTU21D;62812;55.188;61.302;2022-09-02T03:42:30;26.69;50.34
74376;HTU21D;62812;55.188;61.302;2022-09-02T03:56:51;26.35;43.87
74376;HTU21D;62812;55.188;61.302;2022-09-02T04:03:22;26.45;44.90
74376;HTU21D;62812;55.188;61.302;2022-09-02T04:09:30;26.53;40.94
74376;HTU21D;62812;55.188;61.302;2022-09-02T04:12:35;26.75;49.95
74376;HTU21D;62812;55.188;61.302;2022-09-02T04:16:16;27.10;40.23
74376;HTU21D;62812;55.188;61.302;2022-09-02T04:20:26;27.37;46.15
74376;HTU21D;62812;55.188;61.302;2022-09-02T04:23:31;27.54;37.34
74376;HTU21D;62812;55.188;61.302;2022-09-02T04:26:03;27.63;37.88
74376;HTU21D;62812;55.188;61.302;2022-09-02T04:32:01;27.86;37.62
74376;HTU21D;62812;55.188;61.302;2022-09-02T04:38:57;28.03;37.50
74376;HTU21D;62812;55.188;61.302;2022-09-02T05:05:34;28.26;34.93
74376;HTU21D;62812;55.188;61.302;2022-09-02T05:09:13;28.14;36.37
74376;HTU21D;62812;55.188;61.302;2022-09-02T05:12:09;28.17;35.82
74376;HTU21D;62812;55.188;61.302;2022-09-02T05:14:54;28.18;39.58
74376;HTU21D;62812;55.188;61.302;2022-09-02T06:21:04;30.26;33.28
74376;HTU21D;62812;55.188;61.302;2022-09-02T06:24:23;30.38;35.97
74376;HTU21D;62812;55.188;61.302;2022-09-02T06:35:04;30.70;35.18
74376;HTU21D;62812;55.188;61.302;2022-09-02T07:55:43;31.80;22.31
74376;HTU21D;62812;55.188;61.302;2022-09-02T08:05:14;31.98;29.71
74376;HTU21D;62812;55.188;61.302;2022-09-02T08:51:41;32.73;25.81
74376;HTU21D;62812;55.188;61.302;2022-09-02T09:05:18;32.98;24.33
74376;HTU21D;62812;55.188;61.302;2022-09-02T09:08:18;33.08;24.24
74376;HTU21D;62812;55.188;61.302;2022-09-02T09:12:14;33.18;18.68
74376;HTU21D;62812;55.188;61.302;2022-09-02T09:16:03;33.36;19.31
74376;HTU21D;62812;55.188;61.302;2022-09-02T09:18:59;33.52;24.97
74376;HTU21D;62812;55.188;61.302;2022-09-02T09:21:55;33.61;21.16
74376;HTU21D;62812;55.188;61.302;2022-09-02T09:25:30;33.76;16.90
74376;HTU21D;62812;55.188;61.302;2022-09-02T09:28:20;33.85;22.59
74376;HTU21D;62812;55.188;61.302;2022-09-02T10:18:07;34.09;17.74
74376;HTU21D;62812;55.188;61.302;2022-09-02T10:24:39;34.10;14.76
74376;HTU21D;62812;55.188;61.302;2022-09-02T10:45:42;34.06;17.24
74376;HTU21D;62812;55.188;61.302;2022-09-02T10:56:59;34.06;20.40
74376;HTU21D;62812;55.188;61.302;2022-09-02T11:00:03;34.12;24.41
74376;HTU21D;62812;55.188;61.302;2022-09-02T11:03:16;34.12;21.18
74376;HTU21D;62812;55.188;61.302;2022-09-02T11:06:42;34.14;16.37
74376;HTU21D;62812;55.188;61.302;2022-09-02T11:15:00;34.05;13.67
74376;HTU21D;62812;55.188;61.302;2022-09-02T11:17:57;34.05;23.75
74376;HTU21D;62812;55.188;61.302;2022-09-02T11:35:09;34.02;22.12
74376;HTU21D;62812;55.188;61.302;2022-09-02T11:38:14;34.04;21.76
74376;HTU21D;62812;55.188;61.302;2022-09-02T11:41:54;34.01;16.45
74376;HTU21D;62812;55.188;61.302;2022-09-02T11:49:11;33.81;26.17
74376;HTU21D;62812;55.188;61.302;2022-09-02T11:52:37;33.70;13.59
74376;HTU21D;62812;55.188;61.302;2022-09-02T11:56:07;33.52;15.35
74376;HTU21D;62812;55.188;61.302;2022-09-02T12:54:25;32.13;17.23
74376;HTU21D;62812;55.188;61.302;2022-09-02T13:14:00;31.68;22.47
74376;HTU21D;62812;55.188;61.302;2022-09-02T13:28:28;30.86;26.20
74376;HTU21D;62812;55.188;61.302;2022-09-02T13:46:03;29.98;26.94
74376;HTU21D;62812;55.188;61.302;2022-09-02T13:48:50;29.86;31.67
74376;HTU21D;62812;55.188;61.302;2022-09-02T13:51:31;29.66;31.44
74376;HTU21D;62812;55.188;61.302;2022-09-02T13:54:28;29.60;33.57
74376;HTU21D;62812;55.188;61.302;2022-09-02T13:57:19;29.47;28.01
74376;HTU21D;62812;55.188;61.302;2022-09-02T14:04:25;29.09;32.19
74376;HTU21D;62812;55.188;61.302;2022-09-02T14:07:50;29.01;29.81
74376;HTU21D;62812;55.188;61.302;2022-09-02T14:10:49;28.86;31.27
74376;HTU21D;62812;55.188;61.302;2022-09-02T14:13:49;28.74;32.67
74376;HTU21D;62812;55.188;61.302;2022-09-02T14:16:31;28.65;33.57
74376;HTU21D;62812;55.188;61.302;2022-09-02T14:21:55;28.44;31.80
74376;HTU21D;62812;55.188;61.302;2022-09-02T14:24:55;28.39;31.92
74376;HTU21D;62812;55.188;61.302;2022-09-02T14:29:04;28.29;32.57
74376;HTU21D;62812;55.188;61.302;2022-09-02T14:32:01;28.13;33.85
74376;HTU21D;62812;55.188;61.302;2022-09-02T14:35:26;28.01;32.38
74376;HTU21D;62812;55.188;61.302;2022-09-02T14:37:54;28.01;33.70
74376;HTU21D;62812;55.188;61.302;2022-09-02T14:40:35;27.91;34.86
74376;HTU21D;62812;55.188;61.302;2022-09-02T14:43:17;27.82;37.71
74376;HTU21D;62812;55.188;61.302;2022-09-02T14:46:04;27.78;36.44
74376;HTU21D;62812;55.188;61.302;2022-09-02T14:48:37;27.74;38.22
74376;HTU21D;62812;55.188;61.302;2022-09-02T14:51:07;27.70;37.79
74376;HTU21D;62812;55.188;61.302;2022-09-02T14:53:45;27.67;34.55
74376;HTU21D;62812;55.188;61.302;2022-09-02T14:56:51;27.61;36.79
74376;HTU21D;62812;55.188;61.302;2022-09-02T14:59:21;27.58;38.65
74376;HTU21D;62812;55.188;61.302;2022-09-02T15:02:07;27.50;34.74
74376;HTU21D;62812;55.188;61.302;2022-09-02T15:04:47;27.42;34.81
74376;HTU21D;62812;55.188;61.302;2022-09-02T15:07:14;27.40;39.84
74376;HTU21D;62812;55.188;61.302;2022-09-02T15:09:46;27.31;35.55
74376;HTU21D;62812;55.188;61.302;2022-09-02T15:12:24;27.28;35.88
74376;HTU21D;62812;55.188;61.302;2022-09-02T15:14:55;27.24;38.08
74376;HTU21D;62812;55.188;61.302;2022-09-02T15:54:41;26.75;40.20
74376;HTU21D;62812;55.188;61.302;2022-09-02T16:01:51;26.66;39.30
74376;HTU21D;62812;55.188;61.302;2022-09-02T16:28:16;26.05;43.26
74376;HTU21D;62812;55.188;61.302;2022-09-02T16:50:17;25.67;42.69
74376;HTU21D;62812;55.188;61.302;2022-09-02T17:03:11;25.58;43.35
74376;HTU21D;62812;55.188;61.302;2022-09-02T17:09:11;25.49;43.58
74376;HTU21D;62812;55.188;61.302;2022-09-02T17:12:52;25.44;43.62
74376;HTU21D;62812;55.188;61.302;2022-09-02T17:16:03;25.37;43.77
74376;HTU21D;62812;55.188;61.302;2022-09-02T17:19:20;25.31;45.27
74376;HTU21D;62812;55.188;61.302;2022-09-02T17:25:57;25.24;44.06
74376;HTU21D;62812;55.188;61.302;2022-09-02T17:28:50;25.19;44.69
74376;HTU21D;62812;55.188;61.302;2022-09-02T17:36:02;25.07;44.84
74376;HTU21D;62812;55.188;61.302;2022-09-02T17:44:02;25.01;44.99
74376;HTU21D;62812;55.188;61.302;2022-09-02T17:49:54;24.99;44.70
74376;HTU21D;62812;55.188;61.302;2022-09-02T17:52:40;24.98;45.67
74376;HTU21D;62812;55.188;61.302;2022-09-02T17:59:40;24.91;45.41
74376;HTU21D;62812;55.188;61.302;2022-09-02T18:03:08;24.88;45.48
74376;HTU21D;62812;55.188;61.302;2022-09-02T18:06:14;24.88;45.54
74376;HTU21D;62812;55.188;61.302;2022-09-02T18:08:58;24.88;45.85
74376;HTU21D;62812;55.188;61.302;2022-09-02T18:11:38;24.86;45.90
74376;HTU21D;62812;55.188;61.302;2022-09-02T18:14:34;24.86;46.20
74376;HTU21D;62812;55.188;61.302;2022-09-02T18:17:21;24.85;45.93
74376;HTU21D;62812;55.188;61.302;2022-09-02T18:20:06;24.77;46.40
74376;HTU21D;62812;55.188;61.302;2022-09-02T18:23:14;24.73;46.96
74376;HTU21D;62812;55.188;61.302;2022-09-02T18:25:52;24.66;46.45
74376;HTU21D;62812;55.188;61.302;2022-09-02T18:28:34;24.63;47.02
74376;HTU21D;62812;55.188;61.302;2022-09-02T18:31:44;24.61;46.93
74376;HTU21D;62812;55.188;61.302;2022-09-02T18:34:27;24.56;48.82
74376;HTU21D;62812;55.188;61.302;2022-09-02T18:37:08;24.58;47.25
74376;HTU21D;62812;55.188;61.302;2022-09-02T18:39:45;24.55;47.24
74376;HTU21D;62812;55.188;61.302;2022-09-02T18:42:24;24.51;47.65
74376;HTU21D;62812;55.188;61.302;2022-09-02T18:45:05;24.53;48.18
74376;HTU21D;62812;55.188;61.302;2022-09-02T18:47:44;24.50;47.50
74376;HTU21D;62812;55.188;61.302;2022-09-02T18:50:21;24.47;47.67
74376;HTU21D;62812;55.188;61.302;2022-09-02T18:52:59;24.48;48.08
74376;HTU21D;62812;55.188;61.302;2022-09-02T18:55:49;24.42;47.93
74376;HTU21D;62812;55.188;61.302;2022-09-02T18:58:43;24.40;48.11
74376;HTU21D;62812;55.188;61.302;2022-09-02T19:01:21;24.39;48.07
74376;HTU21D;62812;55.188;61.302;2022-09-02T19:03:57;24.35;48.43
74376;HTU21D;62812;55.188;61.302;2022-09-02T19:06:31;24.32;48.77
74376;HTU21D;62812;55.188;61.302;2022-09-02T19:09:07;24.31;48.84
74376;HTU21D;62812;55.188;61.302;2022-09-02T19:11:51;24.27;48.77
74376;HTU21D;62812;55.188;61.302;2022-09-02T19:14:26;24.27;49.03
74376;HTU21D;62812;55.188;61.302;2022-09-02T19:16:56;24.24;49.34
74376;HTU21D;62812;55.188;61.302;2022-09-02T19:19:25;24.16;49.53
74376;HTU21D;62812;55.188;61.302;2022-09-02T19:22:00;24.10;49.85
74376;HTU21D;62812;55.188;61.302;2022-09-02T19:24:40;24.05;49.71
74376;HTU21D;62812;55.188;61.302;2022-09-02T19:27:15;24.02;49.71
74376;HTU21D;62812;55.188;61.302;2022-09-02T19:29:51;24.03;49.28
74376;HTU21D;62812;55.188;61.302;2022-09-02T19:32:52;23.98;49.73
74376;HTU21D;62812;55.188;61.302;2022-09-02T19:40:38;23.79;50.86
74376;HTU21D;62812;55.188;61.302;2022-09-02T19:43:43;23.72;50.97
74376;HTU21D;62812;55.188;61.302;2022-09-02T19:46:37;23.64;51.47
74376;HTU21D;62812;55.188;61.302;2022-09-02T19:49:35;23.54;51.70
74376;HTU21D;62812;55.188;61.302;2022-09-02T19:52:07;23.46;51.98
74376;HTU21D;62812;55.188;61.302;2022-09-02T19:54:35;23.40;52.24
74376;HTU21D;62812;55.188;61.302;2022-09-02T19:57:04;23.34;52.04
74376;HTU21D;62812;55.188;61.302;2022-09-02T19:59:31;23.30;52.05
74376;HTU21D;62812;55.188;61.302;2022-09-02T20:01:57;23.25;52.72
74376;HTU21D;62812;55.188;61.302;2022-09-02T20:04:24;23.22;52.57
74376;HTU21D;62812;55.188;61.302;2022-09-02T20:06:56;23.18;52.31
74376;HTU21D;62812;55.188;61.302;2022-09-02T20:09:24;23.16;52.17
74376;HTU21D;62812;55.188;61.302;2022-09-02T20:11:51;23.13;52.82
74376;HTU21D;62812;55.188;61.302;2022-09-02T20:14:38;23.14;53.64
74376;HTU21D;62812;55.188;61.302;2022-09-02T20:17:13;23.13;54.32
74376;HTU21D;62812;55.188;61.302;2022-09-02T20:19:41;23.11;55.27
74376;HTU21D;62812;55.188;61.302;2022-09-02T20:22:10;23.10;55.45
74376;HTU21D;62812;55.188;61.302;2022-09-02T20:24:38;23.07;55.96
74376;HTU21D;62812;55.188;61.302;2022-09-02T20:27:20;23.05;56.69
74376;HTU21D;62812;55.188;61.302;2022-09-02T20:30:09;23.05;57.35
74376;HTU21D;62812;55.188;61.302;2022-09-02T20:32:43;23.02;57.94
74376;HTU21D;62812;55.188;61.302;2022-09-02T20:35:24;23.02;57.75
74376;HTU21D;62812;55.188;61.302;2022-09-02T20:39:38;23.00;57.90
74376;HTU21D;62812;55.188;61.302;2022-09-02T20:41:25;22.98;57.87
74376;HTU21D;62812;55.188;61.302;2022-09-02T20:44:17;22.93;58.58
74376;HTU21D;62812;55.188;61.302;2022-09-02T20:47:01;22.88;58.84
74376;HTU21D;62812;55.188;61.302;2022-09-02T20:49:45;22.87;58.69
74376;HTU21D;62812;55.188;61.302;2022-09-02T20:52:24;22.84;58.99
74376;HTU21D;62812;55.188;61.302;2022-09-02T20:55:00;22.80;58.99
74376;HTU21D;62812;55.188;61.302;2022-09-02T20:57:36;22.77;59.37
74376;HTU21D;62812;55.188;61.302;2022-09-02T21:00:07;22.72;59.56
74376;HTU21D;62812;55.188;61.302;2022-09-02T21:02:44;22.64;59.73
74376;HTU21D;62812;55.188;61.302;2022-09-02T21:05:16;22.60;60.39
74376;HTU21D;62812;55.188;61.302;2022-09-02T21:07:47;22.58;59.92
74376;HTU21D;62812;55.188;61.302;2022-09-02T21:10:24;22.57;60.05
74376;HTU21D;62812;55.188;61.302;2022-09-02T21:12:58;22.55;59.30
74376;HTU21D;62812;55.188;61.302;2022-09-02T21:15:29;22.58;59.89
74376;HTU21D;62812;55.188;61.302;2022-09-02T21:18:02;22.63;60.07
74376;HTU21D;62812;55.188;61.302;2022-09-02T21:20:41;22.65;59.44
74376;HTU21D;62812;55.188;61.302;2022-09-02T21:26:48;22.67;59.06
74376;HTU21D;62812;55.188;61.302;2022-09-02T21:29:22;22.69;57.54
74376;HTU21D;62812;55.188;61.302;2022-09-02T21:31:58;22.71;57.02
74376;HTU21D;62812;55.188;61.302;2022-09-02T21:34:31;22.70;56.71
74376;HTU21D;62812;55.188;61.302;2022-09-02T21:36:59;22.66;57.25
74376;HTU21D;62812;55.188;61.302;2022-09-02T21:39:30;22.65;56.55
74376;HTU21D;62812;55.188;61.302;2022-09-02T21:42:05;22.61;55.99
74376;HTU21D;62812;55.188;61.302;2022-09-02T21:44:45;22.56;55.90
74376;HTU21D;62812;55.188;61.302;2022-09-02T21:47:23;22.57;55.42
74376;HTU21D;62812;55.188;61.302;2022-09-02T21:50:08;22.57;55.22
74376;HTU21D;62812;55.188;61.302;2022-09-02T21:55:56;22.61;54.78
74376;HTU21D;62812;55.188;61.302;2022-09-02T21:58:39;22.65;54.92
74376;HTU21D;62812;55.188;61.302;2022-09-02T22:01:12;22.55;55.17
74376;HTU21D;62812;55.188;61.302;2022-09-02T22:03:41;22.34;59.54
74376;HTU21D;62812;55.188;61.302;2022-09-02T22:06:19;22.06;60.82
74376;HTU21D;62812;55.188;61.302;2022-09-02T22:08:54;21.81;64.69
74376;HTU21D;62812;55.188;61.302;2022-09-02T22:11:28;21.66;62.37
74376;HTU21D;62812;55.188;61.302;2022-09-02T22:14:11;21.68;66.41
74376;HTU21D;62812;55.188;61.302;2022-09-02T22:16:49;21.46;65.47
74376;HTU21D;62812;55.188;61.302;2022-09-02T22:19:21;21.21;66.49
74376;HTU21D;62812;55.188;61.302;2022-09-02T22:22:00;20.99;70.41
74376;HTU21D;62812;55.188;61.302;2022-09-02T22:24:32;20.90;69.94
74376;HTU21D;62812;55.188;61.302;2022-09-02T22:27:05;20.77;71.39
74376;HTU21D;62812;55.188;61.302;2022-09-02T22:29:41;20.64;70.90
74376;HTU21D;62812;55.188;61.302;2022-09-02T22:32:12;20.54;72.93
74376;HTU21D;62812;55.188;61.302;2022-09-02T22:34:44;20.47;73.64
74376;HTU21D;62812;55.188;61.302;2022-09-02T22:37:21;20.43;68.23
74376;HTU21D;62812;55.188;61.302;2022-09-02T22:39:51;20.39;72.83
74376;HTU21D;62812;55.188;61.302;2022-09-02T22:42:30;20.26;75.49
74376;HTU21D;62812;55.188;61.302;2022-09-02T22:45:03;20.13;76.44
74376;HTU21D;62812;55.188;61.302;2022-09-02T22:47:53;20.00;76.27
74376;HTU21D;62812;55.188;61.302;2022-09-02T22:50:45;19.91;77.41
74376;HTU21D;62812;55.188;61.302;2022-09-02T22:53:35;19.88;76.55
74376;HTU21D;62812;55.188;61.302;2022-09-02T22:56:06;19.85;77.11
74376;HTU21D;62812;55.188;61.302;2022-09-02T22:58:47;19.82;76.72
74376;HTU21D;62812;55.188;61.302;2022-09-02T23:01:19;19.79;77.00
74376;HTU21D;62812;55.188;61.302;2022-09-02T23:04:01;19.83;77.45
74376;HTU21D;62812;55.188;61.302;2022-09-02T23:06:31;19.87;77.92
74376;HTU21D;62812;55.188;61.302;2022-09-02T23:09:00;19.96;77.25
74376;HTU21D;62812;55.188;61.302;2022-09-02T23:11:45;20.00;72.06
74376;HTU21D;62812;55.188;61.302;2022-09-02T23:14:22;20.10;74.35
74376;HTU21D;62812;55.188;61.302;2022-09-02T23:17:07;20.04;77.63
74376;HTU21D;62812;55.188;61.302;2022-09-02T23:19:49;20.00;78.09
74376;HTU21D;62812;55.188;61.302;2022-09-02T23:22:28;19.85;78.32
74376;HTU21D;62812;55.188;61.302;2022-09-02T23:25:09;19.77;78.93
74376;HTU21D;62812;55.188;61.302;2022-09-02T23:27:45;19.77;78.49
74376;HTU21D;62812;55.188;61.302;2022-09-02T23:30:17;19.72;78.74
74376;HTU21D;62812;55.188;61.302;2022-09-02T23:32:58;19.66;79.40
74376;HTU21D;62812;55.188;61.302;2022-09-02T23:35:33;19.63;79.72
74376;HTU21D;62812;55.188;61.302;2022-09-02T23:38:24;19.66;79.38
74376;HTU21D;62812;55.188;61.302;2022-09-02T23:41:00;19.69;76.23
74376;HTU21D;62812;55.188;61.302;2022-09-02T23:43:29;19.66;79.42
74376;HTU21D;62812;55.188;61.302;2022-09-02T23:46:00;19.65;78.90
74376;HTU21D;62812;55.188;61.302;2022-09-02T23:48:38;19.79;73.01
74376;HTU21D;62812;55.188;61.302;2022-09-02T23:51:15;19.82;79.61
74376;HTU21D;62812;55.188;61.302;2022-09-02T23:53:55;19.72;79.20
74376;HTU21D;62812;55.188;61.302;2022-09-02T23:56:33;19.66;80.29
74376;HTU21D;62812;55.188;61.302;2022-09-02T23:59:13;19.53;81.06
